sensor_id;sensor_type;location;lat;lon;timestamp;pressure;altitude;pressure_sealevel;temperature;humidity
5455;BME280;2750;49.050;9.250;2022-09-09T00:04:59;98396.84;;;19.19;78.50
5455;BME280;2750;49.050;9.250;2022-09-09T00:10:14;98392.97;;;19.32;78.43
5455;BME280;2750;49.050;9.250;2022-09-09T00:15:19;98381.34;;;19.35;77.94
5455;BME280;2750;49.050;9.250;2022-09-09T00:20:29;98373.50;;;19.44;77.68
5455;BME280;2750;49.050;9.250;2022-09-09T00:25:37;98375.59;;;19.70;76.60
5455;BME280;2750;49.050;9.250;2022-09-09T00:30:42;98377.09;;;19.43;77.00
5455;BME280;2750;49.050;9.250;2022-09-09T00:35:48;98374.66;;;19.21;77.16
5455;BME280;2750;49.050;9.250;2022-09-09T00:40:52;98372.97;;;19.50;76.37
5455;BME280;2750;49.050;9.250;2022-09-09T00:46:41;98378.91;;;19.52;76.45
5455;BME280;2750;49.050;9.250;2022-09-09T00:51:59;98368.94;;;19.75;75.73
5455;BME280;2750;49.050;9.250;2022-09-09T00:57:13;98377.78;;;20.03;75.01
5455;BME280;2750;49.050;9.250;2022-09-09T01:02:25;98383.56;;;20.26;74.44
5455;BME280;2750;49.050;9.250;2022-09-09T01:07:29;98387.09;;;19.88;75.32
5455;BME280;2750;49.050;9.250;2022-09-09T01:12:38;98390.25;;;20.01;74.95
5455;BME280;2750;49.050;9.250;2022-09-09T01:17:58;98391.94;;;20.02;74.71
5455;BME280;2750;49.050;9.250;2022-09-09T01:23:16;98383.31;;;20.10;74.35
5455;BME280;2750;49.050;9.250;2022-09-09T01:28:26;98381.66;;;20.37;73.75
5455;BME280;2750;49.050;9.250;2022-09-09T01:33:29;98378.88;;;20.39;73.80
5455;BME280;2750;49.050;9.250;2022-09-09T01:38:32;98390.13;;;20.31;74.06
5455;BME280;2750;49.050;9.250;2022-09-09T01:43:35;98393.28;;;20.44;74.33
5455;BME280;2750;49.050;9.250;2022-09-09T01:48:37;98392.47;;;20.34;74.16
5455;BME280;2750;49.050;9.250;2022-09-09T01:53:40;98396.66;;;19.98;74.87
5455;BME280;2750;49.050;9.250;2022-09-09T01:58:55;98398.47;;;19.88;75.34
5455;BME280;2750;49.050;9.250;2022-09-09T02:04:07;98393.75;;;19.82;75.51
5455;BME280;2750;49.050;9.250;2022-09-09T02:09:12;98386.53;;;19.75;75.11
5455;BME280;2750;49.050;9.250;2022-09-09T02:14:19;98398.19;;;19.91;75.18
5455;BME280;2750;49.050;9.250;2022-09-09T02:19:27;98379.63;;;19.74;75.80
5455;BME280;2750;49.050;9.250;2022-09-09T02:24:34;98382.53;;;19.80;76.59
5455;BME280;2750;49.050;9.250;2022-09-09T02:29:39;98369.13;;;19.24;79.13
5455;BME280;2750;49.050;9.250;2022-09-09T02:34:44;98390.97;;;19.05;81.14
5455;BME280;2750;49.050;9.250;2022-09-09T02:39:46;98396.91;;;18.68;82.25
5455;BME280;2750;49.050;9.250;2022-09-09T02:44:49;98411.59;;;18.49;82.65
5455;BME280;2750;49.050;9.250;2022-09-09T02:49:59;98396.06;;;18.57;82.19
5455;BME280;2750;49.050;9.250;2022-09-09T02:55:08;98378.28;;;18.50;82.86
5455;BME280;2750;49.050;9.250;2022-09-09T03:00:14;98377.00;;;18.44;82.24
5455;BME280;2750;49.050;9.250;2022-09-09T03:05:16;98379.47;;;18.67;81.84
5455;BME280;2750;49.050;9.250;2022-09-09T03:10:17;98377.84;;;19.15;80.20
5455;BME280;2750;49.050;9.250;2022-09-09T03:15:21;98371.09;;;19.41;79.62
5455;BME280;2750;49.050;9.250;2022-09-09T03:20:23;98383.84;;;19.36;79.72
5455;BME280;2750;49.050;9.250;2022-09-09T03:25:26;98379.94;;;19.21;79.69
5455;BME280;2750;49.050;9.250;2022-09-09T03:30:30;98382.97;;;19.17;79.73
5455;BME280;2750;49.050;9.250;2022-09-09T03:35:31;98371.59;;;18.97;79.95
5455;BME280;2750;49.050;9.250;2022-09-09T03:40:33;98371.66;;;18.86;80.25
5455;BME280;2750;49.050;9.250;2022-09-09T03:45:36;98370.69;;;18.87;80.79
5455;BME280;2750;49.050;9.250;2022-09-09T03:50:38;98373.91;;;18.60;81.32
5455;BME280;2750;49.050;9.250;2022-09-09T03:55:39;98371.72;;;18.44;82.20
5455;BME280;2750;49.050;9.250;2022-09-09T04:00:53;98377.13;;;18.63;82.10
5455;BME280;2750;49.050;9.250;2022-09-09T04:05:56;98377.44;;;18.49;82.01
5455;BME280;2750;49.050;9.250;2022-09-09T04:10:59;98374.59;;;18.32;82.79
5455;BME280;2750;49.050;9.250;2022-09-09T04:16:03;98377.25;;;18.41;81.90
5455;BME280;2750;49.050;9.250;2022-09-09T04:21:05;98385.28;;;18.19;82.59
5455;BME280;2750;49.050;9.250;2022-09-09T04:26:08;98390.09;;;18.14;82.80
5455;BME280;2750;49.050;9.250;2022-09-09T04:31:15;98391.75;;;18.15;82.79
5455;BME280;2750;49.050;9.250;2022-09-09T04:36:18;98393.22;;;18.49;81.36
5455;BME280;2750;49.050;9.250;2022-09-09T04:41:20;98399.03;;;18.74;79.97
5455;BME280;2750;49.050;9.250;2022-09-09T04:46:23;98396.66;;;18.71;80.63
5455;BME280;2750;49.050;9.250;2022-09-09T04:51:25;98408.56;;;18.75;80.24
5455;BME280;2750;49.050;9.250;2022-09-09T04:56:26;98414.09;;;18.72;80.77
5455;BME280;2750;49.050;9.250;2022-09-09T05:01:29;98409.00;;;18.70;83.23
5455;BME280;2750;49.050;9.250;2022-09-09T05:06:32;98406.69;;;18.35;84.69
5455;BME280;2750;49.050;9.250;2022-09-09T05:11:34;98410.91;;;18.47;84.71
5455;BME280;2750;49.050;9.250;2022-09-09T05:16:39;98422.56;;;18.13;86.78
5455;BME280;2750;49.050;9.250;2022-09-09T05:21:41;98428.34;;;18.07;86.61
5455;BME280;2750;49.050;9.250;2022-09-09T05:26:42;98435.69;;;18.13;86.06
5455;BME280;2750;49.050;9.250;2022-09-09T05:31:45;98433.84;;;18.25;85.83
5455;BME280;2750;49.050;9.250;2022-09-09T05:36:47;98450.72;;;18.43;84.66
5455;BME280;2750;49.050;9.250;2022-09-09T05:41:48;98447.97;;;18.95;84.09
5455;BME280;2750;49.050;9.250;2022-09-09T05:46:52;98445.19;;;19.96;80.53
5455;BME280;2750;49.050;9.250;2022-09-09T05:51:54;98450.66;;;21.43;75.55
5455;BME280;2750;49.050;9.250;2022-09-09T05:56:55;98444.13;;;23.47;70.81
5455;BME280;2750;49.050;9.250;2022-09-09T06:01:58;98438.25;;;22.94;70.67
5455;BME280;2750;49.050;9.250;2022-09-09T06:07:00;98444.06;;;21.75;73.35
5455;BME280;2750;49.050;9.250;2022-09-09T06:12:02;98438.69;;;21.67;74.12
5455;BME280;2750;49.050;9.250;2022-09-09T06:17:05;98440.28;;;21.60;74.52
5455;BME280;2750;49.050;9.250;2022-09-09T06:22:06;98440.38;;;21.68;74.00
5455;BME280;2750;49.050;9.250;2022-09-09T06:27:09;98435.13;;;21.58;73.57
5455;BME280;2750;49.050;9.250;2022-09-09T06:32:12;98444.38;;;21.89;73.67
5455;BME280;2750;49.050;9.250;2022-09-09T06:37:13;98450.38;;;22.09;72.67
5455;BME280;2750;49.050;9.250;2022-09-09T06:42:15;98447.66;;;22.19;71.95
5455;BME280;2750;49.050;9.250;2022-09-09T06:47:18;98452.56;;;21.96;72.65
5455;BME280;2750;49.050;9.250;2022-09-09T06:52:20;98448.78;;;21.99;72.86
5455;BME280;2750;49.050;9.250;2022-09-09T06:57:21;98453.84;;;22.71;71.05
5455;BME280;2750;49.050;9.250;2022-09-09T07:02:24;98462.50;;;23.07;70.93
5455;BME280;2750;49.050;9.250;2022-09-09T07:07:25;98458.94;;;23.32;71.18
5455;BME280;2750;49.050;9.250;2022-09-09T07:12:27;98462.22;;;23.60;69.76
5455;BME280;2750;49.050;9.250;2022-09-09T07:17:30;98455.22;;;24.17;68.65
5455;BME280;2750;49.050;9.250;2022-09-09T07:22:31;98448.75;;;25.23;65.97
5455;BME280;2750;49.050;9.250;2022-09-09T07:27:33;98451.75;;;25.67;63.99
5455;BME280;2750;49.050;9.250;2022-09-09T07:32:36;98454.84;;;25.40;64.43
5455;BME280;2750;49.050;9.250;2022-09-09T07:37:37;98458.91;;;25.66;64.39
5455;BME280;2750;49.050;9.250;2022-09-09T07:42:39;98459.41;;;25.62;63.56
5455;BME280;2750;49.050;9.250;2022-09-09T07:47:41;98449.09;;;24.57;64.28
5455;BME280;2750;49.050;9.250;2022-09-09T07:52:43;98444.75;;;24.72;65.09
5455;BME280;2750;49.050;9.250;2022-09-09T07:57:45;98451.09;;;24.14;66.92
5455;BME280;2750;49.050;9.250;2022-09-09T08:02:47;98459.44;;;23.77;66.70
5455;BME280;2750;49.050;9.250;2022-09-09T08:07:49;98464.56;;;25.16;64.30
5455;BME280;2750;49.050;9.250;2022-09-09T08:12:50;98458.97;;;25.81;62.75
5455;BME280;2750;49.050;9.250;2022-09-09T08:17:53;98453.78;;;25.88;62.16
5455;BME280;2750;49.050;9.250;2022-09-09T08:22:57;98466.25;;;23.88;66.38
5455;BME280;2750;49.050;9.250;2022-09-09T08:27:59;98455.75;;;24.37;66.34
5455;BME280;2750;49.050;9.250;2022-09-09T08:33:01;98441.84;;;26.06;61.92
5455;BME280;2750;49.050;9.250;2022-09-09T08:38:03;98446.59;;;27.08;59.90
5455;BME280;2750;49.050;9.250;2022-09-09T08:43:05;98461.84;;;25.41;61.21
5455;BME280;2750;49.050;9.250;2022-09-09T08:48:23;98453.53;;;25.36;62.11
5455;BME280;2750;49.050;9.250;2022-09-09T08:53:36;98450.38;;;26.25;60.50
5455;BME280;2750;49.050;9.250;2022-09-09T08:58:43;98426.00;;;26.88;59.15
5455;BME280;2750;49.050;9.250;2022-09-09T09:03:56;98429.81;;;26.56;58.71
5455;BME280;2750;49.050;9.250;2022-09-09T09:09:02;98431.66;;;27.58;58.00
5455;BME280;2750;49.050;9.250;2022-09-09T09:14:10;98446.91;;;26.76;58.32
5455;BME280;2750;49.050;9.250;2022-09-09T09:19:15;98443.19;;;27.15;58.02
5455;BME280;2750;49.050;9.250;2022-09-09T09:24:19;98438.75;;;27.51;57.39
5455;BME280;2750;49.050;9.250;2022-09-09T09:29:24;98437.81;;;26.10;58.94
5455;BME280;2750;49.050;9.250;2022-09-09T09:34:27;98419.72;;;26.66;58.54
5455;BME280;2750;49.050;9.250;2022-09-09T09:39:30;98394.75;;;26.82;57.01
5455;BME280;2750;49.050;9.250;2022-09-09T09:44:36;98394.28;;;26.78;56.58
5455;BME280;2750;49.050;9.250;2022-09-09T09:49:39;98391.66;;;27.58;55.34
5455;BME280;2750;49.050;9.250;2022-09-09T09:54:52;98398.47;;;28.73;53.10
5455;BME280;2750;49.050;9.250;2022-09-09T10:00:02;98446.13;;;25.62;63.41
5455;BME280;2750;49.050;9.250;2022-09-09T10:05:13;98434.94;;;23.67;67.04
5455;BME280;2750;49.050;9.250;2022-09-09T10:10:20;98449.19;;;23.32;69.16
5455;BME280;2750;49.050;9.250;2022-09-09T10:15:30;98444.25;;;24.12;68.50
5455;BME280;2750;49.050;9.250;2022-09-09T10:20:41;98468.47;;;22.65;77.33
5455;BME280;2750;49.050;9.250;2022-09-09T10:26:03;98471.38;;;19.88;90.40
5455;BME280;2750;49.050;9.250;2022-09-09T10:31:17;98467.03;;;19.18;92.51
5455;BME280;2750;49.050;9.250;2022-09-09T10:36:24;98466.81;;;19.31;93.84
5455;BME280;2750;49.050;9.250;2022-09-09T10:41:39;98457.13;;;20.00;93.83
5455;BME280;2750;49.050;9.250;2022-09-09T10:47:05;98455.34;;;19.41;94.29
5455;BME280;2750;49.050;9.250;2022-09-09T10:52:18;98440.84;;;20.99;92.52
5455;BME280;2750;49.050;9.250;2022-09-09T10:57:27;98446.28;;;21.34;87.67
5455;BME280;2750;49.050;9.250;2022-09-09T11:02:31;98446.91;;;21.91;86.15
5455;BME280;2750;49.050;9.250;2022-09-09T11:07:38;98450.28;;;22.01;83.16
5455;BME280;2750;49.050;9.250;2022-09-09T11:12:43;98444.91;;;22.98;78.85
5455;BME280;2750;49.050;9.250;2022-09-09T11:17:50;98447.41;;;23.99;76.13
5455;BME280;2750;49.050;9.250;2022-09-09T11:23:01;98433.63;;;24.68;78.14
5455;BME280;2750;49.050;9.250;2022-09-09T11:28:16;98451.25;;;22.35;72.02
5455;BME280;2750;49.050;9.250;2022-09-09T11:33:34;98444.94;;;21.66;74.92
5455;BME280;2750;49.050;9.250;2022-09-09T11:38:47;98449.69;;;21.17;74.15
5455;BME280;2750;49.050;9.250;2022-09-09T11:43:51;98449.72;;;20.98;74.67
5455;BME280;2750;49.050;9.250;2022-09-09T11:48:58;98457.34;;;21.11;73.48
5455;BME280;2750;49.050;9.250;2022-09-09T11:54:24;98436.28;;;21.28;71.79
5455;BME280;2750;49.050;9.250;2022-09-09T11:59:27;98459.72;;;21.04;74.01
5455;BME280;2750;49.050;9.250;2022-09-09T12:04:32;98462.59;;;21.48;75.55
5455;BME280;2750;49.050;9.250;2022-09-09T12:09:45;98447.84;;;21.90;74.20
5455;BME280;2750;49.050;9.250;2022-09-09T12:14:59;98442.03;;;22.04;74.66
5455;BME280;2750;49.050;9.250;2022-09-09T12:20:06;98438.00;;;22.53;73.85
5455;BME280;2750;49.050;9.250;2022-09-09T12:25:18;98430.88;;;23.05;74.59
5455;BME280;2750;49.050;9.250;2022-09-09T12:30:29;98418.22;;;24.07;70.35
5455;BME280;2750;49.050;9.250;2022-09-09T12:35:32;98396.16;;;24.63;65.71
5455;BME280;2750;49.050;9.250;2022-09-09T12:40:34;98408.22;;;24.90;67.09
5455;BME280;2750;49.050;9.250;2022-09-09T12:45:40;98410.25;;;24.64;64.77
5455;BME280;2750;49.050;9.250;2022-09-09T12:50:45;98410.09;;;25.82;63.53
5455;BME280;2750;49.050;9.250;2022-09-09T12:55:50;98407.94;;;25.55;61.44
5455;BME280;2750;49.050;9.250;2022-09-09T13:00:55;98389.28;;;24.93;59.51
5455;BME280;2750;49.050;9.250;2022-09-09T13:05:58;98399.22;;;24.99;60.77
5455;BME280;2750;49.050;9.250;2022-09-09T13:11:03;98400.94;;;24.76;61.61
5455;BME280;2750;49.050;9.250;2022-09-09T13:16:25;98382.00;;;24.79;63.31
5455;BME280;2750;49.050;9.250;2022-09-09T13:21:34;98389.00;;;25.58;61.46
5455;BME280;2750;49.050;9.250;2022-09-09T13:26:36;98394.25;;;25.66;61.08
5455;BME280;2750;49.050;9.250;2022-09-09T13:31:40;98397.69;;;25.75;60.21
5455;BME280;2750;49.050;9.250;2022-09-09T13:36:42;98381.19;;;26.25;58.58
5455;BME280;2750;49.050;9.250;2022-09-09T13:41:48;98368.06;;;26.00;58.61
5455;BME280;2750;49.050;9.250;2022-09-09T13:47:03;98375.81;;;26.77;56.90
5455;BME280;2750;49.050;9.250;2022-09-09T13:52:09;98359.94;;;26.16;57.19
5455;BME280;2750;49.050;9.250;2022-09-09T13:57:15;98363.09;;;27.01;55.18
5455;BME280;2750;49.050;9.250;2022-09-09T14:02:19;98355.16;;;27.08;56.06
5455;BME280;2750;49.050;9.250;2022-09-09T14:07:21;98337.03;;;27.96;55.10
5455;BME280;2750;49.050;9.250;2022-09-09T14:12:23;98355.63;;;26.82;55.44
5455;BME280;2750;49.050;9.250;2022-09-09T14:17:28;98350.00;;;26.77;56.13
5455;BME280;2750;49.050;9.250;2022-09-09T14:22:31;98360.06;;;24.93;60.41
5455;BME280;2750;49.050;9.250;2022-09-09T14:27:33;98367.81;;;24.48;61.04
5455;BME280;2750;49.050;9.250;2022-09-09T14:32:35;98350.53;;;24.68;60.90
5455;BME280;2750;49.050;9.250;2022-09-09T14:37:37;98359.13;;;24.86;60.54
5455;BME280;2750;49.050;9.250;2022-09-09T14:42:39;98355.72;;;25.62;58.60
5455;BME280;2750;49.050;9.250;2022-09-09T14:47:42;98365.41;;;24.85;58.57
5455;BME280;2750;49.050;9.250;2022-09-09T14:52:44;98369.88;;;24.76;58.88
5455;BME280;2750;49.050;9.250;2022-09-09T14:57:45;98372.19;;;24.88;58.27
5455;BME280;2750;49.050;9.250;2022-09-09T15:02:51;98371.31;;;24.08;60.54
5455;BME280;2750;49.050;9.250;2022-09-09T15:07:53;98390.19;;;22.72;67.76
5455;BME280;2750;49.050;9.250;2022-09-09T15:12:54;98382.22;;;22.21;69.92
5455;BME280;2750;49.050;9.250;2022-09-09T15:17:58;98379.09;;;22.00;74.68
5455;BME280;2750;49.050;9.250;2022-09-09T15:22:59;98378.44;;;23.09;72.81
5455;BME280;2750;49.050;9.250;2022-09-09T15:28:01;98374.16;;;24.06;65.56
5455;BME280;2750;49.050;9.250;2022-09-09T15:33:08;98380.44;;;23.23;64.98
5455;BME280;2750;49.050;9.250;2022-09-09T15:38:10;98382.53;;;22.95;63.72
5455;BME280;2750;49.050;9.250;2022-09-09T15:43:13;98366.03;;;23.75;63.95
5455;BME280;2750;49.050;9.250;2022-09-09T15:48:16;98358.91;;;23.68;62.94
5455;BME280;2750;49.050;9.250;2022-09-09T15:53:19;98365.50;;;23.48;61.73
5455;BME280;2750;49.050;9.250;2022-09-09T15:58:21;98368.34;;;23.12;63.46
5455;BME280;2750;49.050;9.250;2022-09-09T16:03:24;98378.75;;;23.06;63.26
5455;BME280;2750;49.050;9.250;2022-09-09T16:08:31;98393.94;;;22.96;64.08
5455;BME280;2750;49.050;9.250;2022-09-09T16:13:33;98400.25;;;22.69;65.23
5455;BME280;2750;49.050;9.250;2022-09-09T16:18:38;98404.13;;;23.24;64.40
5455;BME280;2750;49.050;9.250;2022-09-09T16:23:40;98417.69;;;22.79;66.13
5455;BME280;2750;49.050;9.250;2022-09-09T16:28:41;98424.31;;;22.14;69.58
5455;BME280;2750;49.050;9.250;2022-09-09T16:33:45;98452.22;;;21.64;72.70
5455;BME280;2750;49.050;9.250;2022-09-09T16:38:47;98472.63;;;20.03;81.69
5455;BME280;2750;49.050;9.250;2022-09-09T16:43:52;98479.22;;;19.59;83.92
5455;BME280;2750;49.050;9.250;2022-09-09T16:48:57;98477.34;;;19.00;84.48
5455;BME280;2750;49.050;9.250;2022-09-09T16:54:00;98480.72;;;18.82;83.10
5455;BME280;2750;49.050;9.250;2022-09-09T16:59:04;98466.78;;;18.49;86.26
5455;BME280;2750;49.050;9.250;2022-09-09T17:04:09;98467.88;;;18.26;88.03
5455;BME280;2750;49.050;9.250;2022-09-09T17:09:11;98468.81;;;17.73;88.14
5455;BME280;2750;49.050;9.250;2022-09-09T17:14:15;98460.59;;;17.66;89.25
5455;BME280;2750;49.050;9.250;2022-09-09T17:19:18;98455.00;;;17.59;88.07
5455;BME280;2750;49.050;9.250;2022-09-09T17:24:19;98450.53;;;17.82;87.79
5455;BME280;2750;49.050;9.250;2022-09-09T17:29:22;98451.38;;;17.72;88.46
5455;BME280;2750;49.050;9.250;2022-09-09T17:34:24;98453.06;;;17.73;87.73
5455;BME280;2750;49.050;9.250;2022-09-09T17:39:27;98455.00;;;17.59;88.23
5455;BME280;2750;49.050;9.250;2022-09-09T17:44:29;98457.94;;;17.77;85.83
5455;BME280;2750;49.050;9.250;2022-09-09T17:49:33;98465.03;;;17.97;86.49
5455;BME280;2750;49.050;9.250;2022-09-09T17:54:35;98473.44;;;18.12;86.32
5455;BME280;2750;49.050;9.250;2022-09-09T17:59:36;98458.09;;;18.28;84.78
5455;BME280;2750;49.050;9.250;2022-09-09T18:04:39;98462.69;;;17.83;87.44
5455;BME280;2750;49.050;9.250;2022-09-09T18:09:42;98465.66;;;17.79;88.24
5455;BME280;2750;49.050;9.250;2022-09-09T18:14:43;98476.53;;;17.85;87.95
5455;BME280;2750;49.050;9.250;2022-09-09T18:19:48;98490.91;;;17.70;89.01
5455;BME280;2750;49.050;9.250;2022-09-09T18:24:49;98498.13;;;17.89;89.36
5455;BME280;2750;49.050;9.250;2022-09-09T18:29:51;98519.56;;;18.05;88.93
5455;BME280;2750;49.050;9.250;2022-09-09T18:34:54;98517.69;;;18.48;87.14
5455;BME280;2750;49.050;9.250;2022-09-09T18:39:58;98527.59;;;18.56;87.62
5455;BME280;2750;49.050;9.250;2022-09-09T18:45:00;98547.53;;;18.58;87.81
5455;BME280;2750;49.050;9.250;2022-09-09T18:50:04;98542.84;;;18.83;87.13
5455;BME280;2750;49.050;9.250;2022-09-09T18:55:07;98542.72;;;18.63;87.10
5455;BME280;2750;49.050;9.250;2022-09-09T19:00:10;98538.19;;;18.66;87.10
5455;BME280;2750;49.050;9.250;2022-09-09T19:05:13;98538.84;;;18.47;87.36
5455;BME280;2750;49.050;9.250;2022-09-09T19:10:15;98547.41;;;18.28;88.62
5455;BME280;2750;49.050;9.250;2022-09-09T19:15:16;98547.41;;;18.28;89.31
5455;BME280;2750;49.050;9.250;2022-09-09T19:20:19;98550.31;;;18.46;87.74
5455;BME280;2750;49.050;9.250;2022-09-09T19:25:23;98554.56;;;18.26;88.38
5455;BME280;2750;49.050;9.250;2022-09-09T19:30:24;98549.00;;;18.51;87.49
5455;BME280;2750;49.050;9.250;2022-09-09T19:35:27;98547.84;;;18.33;88.96
5455;BME280;2750;49.050;9.250;2022-09-09T19:40:29;98558.09;;;18.47;88.89
5455;BME280;2750;49.050;9.250;2022-09-09T19:45:30;98553.19;;;18.11;89.78
5455;BME280;2750;49.050;9.250;2022-09-09T19:50:35;98555.91;;;17.66;91.70
5455;BME280;2750;49.050;9.250;2022-09-09T19:55:37;98549.59;;;17.69;91.92
5455;BME280;2750;49.050;9.250;2022-09-09T20:00:39;98553.00;;;17.92;91.12
5455;BME280;2750;49.050;9.250;2022-09-09T20:05:42;98564.19;;;17.94;90.48
5455;BME280;2750;49.050;9.250;2022-09-09T20:10:50;98570.91;;;17.76;90.79
5455;BME280;2750;49.050;9.250;2022-09-09T20:15:57;98578.50;;;18.12;89.74
5455;BME280;2750;49.050;9.250;2022-09-09T20:21:03;98588.34;;;17.88;91.14
5455;BME280;2750;49.050;9.250;2022-09-09T20:26:07;98606.97;;;17.62;93.29
5455;BME280;2750;49.050;9.250;2022-09-09T20:31:11;98617.16;;;18.10;91.03
5455;BME280;2750;49.050;9.250;2022-09-09T20:36:17;98611.63;;;18.35;89.16
5455;BME280;2750;49.050;9.250;2022-09-09T20:41:21;98618.56;;;18.25;90.67
5455;BME280;2750;49.050;9.250;2022-09-09T20:46:25;98619.38;;;18.37;89.77
5455;BME280;2750;49.050;9.250;2022-09-09T20:51:29;98615.16;;;18.45;89.36
5455;BME280;2750;49.050;9.250;2022-09-09T20:56:34;98610.88;;;18.44;89.72
5455;BME280;2750;49.050;9.250;2022-09-09T21:01:36;98605.16;;;18.39;89.35
5455;BME280;2750;49.050;9.250;2022-09-09T21:06:40;98601.09;;;18.46;88.91
5455;BME280;2750;49.050;9.250;2022-09-09T21:11:41;98592.91;;;18.17;89.63
5455;BME280;2750;49.050;9.250;2022-09-09T21:16:43;98586.53;;;17.99;90.50
5455;BME280;2750;49.050;9.250;2022-09-09T21:21:46;98585.94;;;17.96;91.14
5455;BME280;2750;49.050;9.250;2022-09-09T21:26:47;98579.53;;;17.78;91.38
5455;BME280;2750;49.050;9.250;2022-09-09T21:31:49;98582.25;;;17.76;91.68
5455;BME280;2750;49.050;9.250;2022-09-09T21:36:53;98578.13;;;17.62;92.45
5455;BME280;2750;49.050;9.250;2022-09-09T21:41:55;98577.00;;;17.43;92.68
5455;BME280;2750;49.050;9.250;2022-09-09T21:46:57;98590.00;;;17.55;92.13
5455;BME280;2750;49.050;9.250;2022-09-09T21:52:00;98588.69;;;17.50;91.65
5455;BME280;2750;49.050;9.250;2022-09-09T21:57:02;98601.34;;;17.67;91.07
5455;BME280;2750;49.050;9.250;2022-09-09T22:02:04;98587.50;;;17.54;92.33
5455;BME280;2750;49.050;9.250;2022-09-09T22:07:06;98588.22;;;17.67;91.33
5455;BME280;2750;49.050;9.250;2022-09-09T22:12:08;98595.50;;;17.97;90.52
5455;BME280;2750;49.050;9.250;2022-09-09T22:17:10;98590.25;;;17.86;90.45
5455;BME280;2750;49.050;9.250;2022-09-09T22:22:13;98593.25;;;17.59;90.99
5455;BME280;2750;49.050;9.250;2022-09-09T22:27:14;98580.47;;;17.77;89.87
5455;BME280;2750;49.050;9.250;2022-09-09T22:32:16;98586.19;;;17.93;89.34
5455;BME280;2750;49.050;9.250;2022-09-09T22:37:19;98599.69;;;17.77;90.61
5455;BME280;2750;49.050;9.250;2022-09-09T22:42:22;98602.63;;;18.06;90.29
5455;BME280;2750;49.050;9.250;2022-09-09T22:47:23;98626.41;;;17.93;89.70
5455;BME280;2750;49.050;9.250;2022-09-09T22:52:27;98651.91;;;16.90;94.42
5455;BME280;2750;49.050;9.250;2022-09-09T22:57:31;98646.63;;;16.79;96.37
5455;BME280;2750;49.050;9.250;2022-09-09T23:02:32;98633.00;;;17.08;96.30
5455;BME280;2750;49.050;9.250;2022-09-09T23:07:36;98631.22;;;17.09;96.06
5455;BME280;2750;49.050;9.250;2022-09-09T23:12:37;98631.69;;;17.14;95.64
5455;BME280;2750;49.050;9.250;2022-09-09T23:17:39;98635.03;;;17.05;96.50
5455;BME280;2750;49.050;9.250;2022-09-09T23:22:42;98627.41;;;17.13;97.11
5455;BME280;2750;49.050;9.250;2022-09-09T23:27:44;98622.28;;;17.23;96.68
5455;BME280;2750;49.050;9.250;2022-09-09T23:32:47;98621.47;;;17.33;96.18
5455;BME280;2750;49.050;9.250;2022-09-09T23:37:50;98612.78;;;17.44;95.10
5455;BME280;2750;49.050;9.250;2022-09-09T23:42:52;98604.66;;;17.25;96.40
5455;BME280;2750;49.050;9.250;2022-09-09T23:47:54;98595.72;;;17.16;96.90
5455;BME280;2750;49.050;9.250;2022-09-09T23:52:57;98610.56;;;16.93;97.59
5455;BME280;2750;49.050;9.250;2022-09-09T23:57:58;98615.31;;;16.88;98.36
